Time;durP1;ratioP1;P1;durP2;ratioP2;P2;SDS_P1;SDS_P2;PMS_P1;PMS_P2;Temp;Humidity;BMP_temperature;BMP_pressure;BME280_temperature;BME280_humidity;BME280_pressure;Samples;Min_cycle;Max_cycle;Signal;HPM_P1;HPM_P2
2022/05/05 00:01:15;;;;;;;11.75;3.55;;;;;;;13.09;70.24;100888.25;6180071;23;20024;-68
2022/05/05 00:04:21;;;;;;;10.02;4.68;;;;;;;12.98;70.81;100898.47;6179885;23;20054;-68
2022/05/05 00:07:25;;;;;;;11.63;4.05;;;;;;;12.98;70.81;100899.31;6179770;23;20029;-68
2022/05/05 00:17:13;;;;;;;9.98;3.67;;;;;;;12.80;72.28;100895.97;6179864;23;20092;-68
2022/05/05 00:20:17;;;;;;;7.53;3.97;;;;;;;12.78;71.24;100892.56;6179122;23;20513;-68
2022/05/05 00:23:20;;;;;;;;;;;;;;;12.87;70.88;100896.47;6180297;23;20028;-68
2022/05/05 00:26:24;;;;;;;;;;;;;;;12.95;70.33;100890.78;6180234;23;19919;-68
2022/05/05 00:29:28;;;;;;;9.02;3.72;;;;;;;12.91;70.20;100891.91;6179720;23;19938;-68
2022/05/05 00:32:31;;;;;;;6.00;2.95;;;;;;;13.05;68.74;100894.59;6179631;23;20028;-68
2022/05/05 00:35:35;;;;;;;6.70;4.15;;;;;;;12.92;69.31;100898.81;6251291;22;20077;-68
2022/05/05 00:38:38;;;;;;;9.45;3.88;;;;;;;12.89;69.65;100896.38;6179163;22;20032;-68
2022/05/05 00:41:45;;;;;;;9.20;3.63;;;;;;;12.88;69.79;100898.16;6179664;23;20028;-68
2022/05/05 00:44:48;;;;;;;6.75;3.58;;;;;;;12.84;70.22;100890.56;6179537;23;20051;-68
2022/05/05 00:47:52;;;;;;;10.02;3.22;;;;;;;12.76;70.48;100890.97;6179395;23;20072;-68
2022/05/05 00:50:56;;;;;;;10.13;3.53;;;;;;;12.83;70.17;100899.34;6180830;23;20482;-68
2022/05/05 00:54:00;;;;;;;8.07;3.03;;;;;;;12.89;69.42;100899.88;6181054;23;20039;-68
2022/05/05 00:57:05;;;;;;;7.57;3.30;;;;;;;12.79;70.17;100907.41;6181023;23;20024;-68
2022/05/05 01:00:09;;;;;;;8.57;3.70;;;;;;;12.61;70.55;100902.31;6181024;23;20024;-68
2022/05/05 01:03:15;;;;;;;5.22;3.38;;;;;;;12.62;70.97;100904.84;6180814;23;20400;-68
2022/05/05 01:06:20;;;;;;;7.85;3.22;;;;;;;12.60;71.16;100898.84;6252155;22;20075;-68
2022/05/05 01:09:23;;;;;;;7.50;3.28;;;;;;;12.49;71.39;100903.84;6180914;23;20027;-68
2022/05/05 01:12:31;;;;;;;8.18;3.40;;;;;;;12.40;71.78;100906.94;6180937;23;20027;-68
2022/05/05 01:15:36;;;;;;;9.98;3.33;;;;;;;12.50;71.17;100900.25;6180933;23;20024;-68
2022/05/05 01:18:40;;;;;;;7.97;3.08;;;;;;;12.54;70.92;100902.66;6180526;23;20028;-68
2022/05/05 01:21:53;;;;;;;9.57;2.83;;;;;;;12.41;71.12;100895.50;6180811;23;20529;-68
2022/05/05 01:28:19;;;;;;;16.92;3.20;;;;;;;12.37;71.63;100902.72;6180978;23;19993;-68
2022/05/05 01:31:22;;;;;;;6.10;3.50;;;;;;;12.29;72.15;100902.28;6181085;23;20077;-68
2022/05/05 01:34:25;;;;;;;10.13;3.35;;;;;;;12.29;72.45;100908.38;6181045;23;20055;-68
2022/05/05 01:37:29;;;;;;;10.25;3.75;;;;;;;12.24;72.54;100912.16;6180251;22;20344;-68
2022/05/05 01:40:35;;;;;;;11.43;3.83;;;;;;;12.19;72.15;100909.78;6180837;23;20027;-68
2022/05/05 01:43:42;;;;;;;8.68;3.85;;;;;;;12.23;72.17;100910.47;6180850;23;20024;-68
2022/05/05 01:46:45;;;;;;;6.00;3.50;;;;;;;12.18;72.56;100909.84;6180859;23;20094;-68
2022/05/05 01:49:49;;;;;;;6.22;3.55;;;;;;;12.15;72.79;100913.47;6180642;23;20491;-68
2022/05/05 01:52:53;;;;;;;7.20;3.38;;;;;;;12.28;72.50;100921.53;6180772;23;20027;-68
2022/05/05 01:55:56;;;;;;;6.88;3.53;;;;;;;12.38;71.72;100914.03;6180773;23;20020;-68
2022/05/05 01:59:00;;;;;;;5.75;3.30;;;;;;;12.40;71.10;100920.06;6180740;23;20070;-68
2022/05/05 02:02:03;;;;;;;;;;;;;;;12.34;71.87;100918.59;6180892;23;20098;-68
2022/05/05 02:05:32;;;;;;;8.48;3.38;;;;;;;12.19;72.32;100922.03;6180538;23;19919;-68
2022/05/05 02:08:37;;;;;;;7.07;3.10;;;;;;;12.12;72.26;100925.91;6180695;23;20059;-68
2022/05/05 02:11:41;;;;;;;7.47;3.15;;;;;;;12.33;71.83;100911.69;6180751;23;20497;-68
2022/05/05 02:14:45;;;;;;;8.35;3.95;;;;;;;12.23;72.46;100927.03;6180548;23;20150;-68
2022/05/05 02:17:49;;;;;;;7.03;3.60;;;;;;;12.07;73.02;100926.16;6180540;23;20024;-68
2022/05/05 02:20:52;;;;;;;9.82;3.83;;;;;;;12.05;72.78;100922.75;6252321;22;20028;-68
2022/05/05 02:23:56;;;;;;;10.30;4.32;;;;;;;11.95;73.15;100932.03;6180621;23;20023;-68
2022/05/05 02:26:59;;;;;;;;;;;;;;;11.95;73.24;100929.41;6181051;23;20024;-68
2022/05/05 02:30:02;;;;;;;;;;;;;;;11.97;73.26;100927.56;6180971;23;20244;-68
2022/05/05 02:33:06;;;;;;;8.23;3.97;;;;;;;12.02;72.96;100928.16;6180797;23;19969;-68
2022/05/05 02:39:39;;;;;;;6.97;3.67;;;;;;;11.83;73.31;100936.09;6184366;22;19955;-68
2022/05/05 02:42:42;;;;;;;9.50;3.72;;;;;;;11.81;73.51;100936.19;6180576;23;20027;-68
2022/05/05 02:45:45;;;;;;;;;;;;;;;11.95;73.15;100932.88;6180552;23;20513;-68
2022/05/05 02:48:49;;;;;;;7.90;3.83;;;;;;;11.82;73.86;100937.03;6180544;23;19915;-68
2022/05/05 02:51:52;;;;;;;6.95;3.30;;;;;;;11.80;74.34;100944.94;6180499;23;20024;-68
2022/05/05 02:54:56;;;;;;;7.35;4.20;;;;;;;11.76;74.90;100942.56;6180490;23;20112;-68
2022/05/05 02:58:00;;;;;;;8.85;3.45;;;;;;;11.71;74.89;100945.44;6180435;23;20024;-68
2022/05/05 03:01:03;;;;;;;7.90;3.38;;;;;;;11.76;74.93;100947.81;6180295;23;20069;-68
2022/05/05 03:04:07;;;;;;;7.63;3.45;;;;;;;11.78;74.59;100946.81;6180359;23;20024;-68
2022/05/05 03:07:10;;;;;;;5.93;3.70;;;;;;;11.70;75.08;100948.97;6180018;23;20024;-68
2022/05/05 03:10:14;;;;;;;7.57;3.38;;;;;;;11.68;74.83;100950.81;6180361;23;20139;-68
2022/05/05 03:13:18;;;;;;;9.82;4.00;;;;;;;11.67;74.69;100949.09;6180250;23;20455;-68
2022/05/05 03:16:21;;;;;;;12.82;4.15;;;;;;;11.74;74.44;100950.53;6180286;23;20070;-68
2022/05/05 03:19:26;;;;;;;11.30;4.40;;;;;;;11.66;74.83;100954.44;6180560;23;20028;-68
2022/05/05 03:22:29;;;;;;;8.40;3.90;;;;;;;11.57;75.04;100953.97;6180278;23;20024;-68
2022/05/05 03:25:33;;;;;;;7.93;3.85;;;;;;;11.63;74.76;100953.66;6180207;23;20032;-68
2022/05/05 03:28:36;;;;;;;;;;;;;;;11.64;74.94;100959.75;6180409;23;20040;-69
2022/05/05 03:31:39;;;;;;;7.80;4.10;;;;;;;11.61;74.91;100960.75;6180290;23;19935;-68
2022/05/05 03:34:43;;;;;;;8.88;4.28;;;;;;;11.57;74.87;100966.22;6180128;23;20070;-68
2022/05/05 03:37:46;;;;;;;8.63;3.83;;;;;;;11.52;74.88;100955.09;6179954;22;20456;-68
2022/05/05 03:40:51;;;;;;;8.88;3.90;;;;;;;11.47;75.31;100965.81;6180540;23;20372;-68
2022/05/05 03:43:54;;;;;;;8.57;4.00;;;;;;;11.50;75.67;100963.06;6251103;22;20027;-69
2022/05/05 03:46:57;;;;;;;8.80;4.03;;;;;;;11.59;75.55;100964.38;6179947;23;20070;-68
2022/05/05 03:50:01;;;;;;;8.32;4.30;;;;;;;11.49;75.86;100961.38;6174989;23;20032;-68
2022/05/05 03:53:05;;;;;;;8.63;3.75;;;;;;;11.56;75.79;100961.91;6247361;22;20400;-68
2022/05/05 03:56:09;;;;;;;9.27;3.65;;;;;;;11.51;76.39;100971.75;6170161;23;20443;-69
2022/05/05 03:59:13;;;;;;;5.93;3.60;;;;;;;11.51;76.30;100975.22;6169545;23;20032;-68
2022/05/05 04:02:16;;;;;;;10.35;4.28;;;;;;;11.40;76.51;100975.75;6169892;23;20043;-69
2022/05/05 04:05:20;;;;;;;9.18;3.78;;;;;;;11.32;76.68;100982.25;6240663;22;20742;-68
2022/05/05 04:08:24;;;;;;;11.57;4.28;;;;;;;11.40;76.63;100983.59;6169065;23;20028;-69
2022/05/05 04:11:27;;;;;;;;;;;;;;;11.32;76.98;100984.88;6169650;23;20068;-69
2022/05/05 04:14:33;;;;;;;13.00;4.15;;;;;;;11.36;76.64;100982.06;6167554;23;19970;-69
2022/05/05 04:17:37;;;;;;;8.00;3.92;;;;;;;11.35;76.41;100990.81;6171803;23;20028;-68
2022/05/05 04:20:42;;;;;;;8.77;4.25;;;;;;;11.34;76.42;100993.53;6170440;23;20059;-69
2022/05/05 04:23:45;;;;;;;10.88;4.25;;;;;;;11.29;76.66;100998.13;6175790;23;20028;-68
2022/05/05 04:26:49;;;;;;;8.63;4.10;;;;;;;11.35;76.52;101003.91;6176241;23;20081;-68
2022/05/05 04:29:52;;;;;;;7.60;3.85;;;;;;;11.43;76.29;101007.94;6170251;23;20036;-69
2022/05/05 04:32:56;;;;;;;6.05;4.07;;;;;;;11.48;76.37;100995.47;6174169;23;20097;-68
2022/05/05 04:36:00;;;;;;;9.00;4.43;;;;;;;11.42;76.65;101001.84;6176985;23;20097;-68
2022/05/05 04:39:04;;;;;;;7.50;3.90;;;;;;;11.44;76.54;101005.25;6178510;22;20028;-68
2022/05/05 04:42:10;;;;;;;7.88;3.78;;;;;;;11.54;75.83;101008.25;6178309;23;20500;-68
2022/05/05 04:45:13;;;;;;;9.93;4.28;;;;;;;11.54;75.68;101013.50;6178614;23;20056;-68
2022/05/05 04:48:17;;;;;;;9.50;4.10;;;;;;;11.48;75.95;101013.78;6179086;23;20474;-68
2022/05/05 04:51:20;;;;;;;10.75;5.05;;;;;;;11.53;75.94;101024.91;6180365;23;20096;-69
2022/05/05 04:54:23;;;;;;;8.35;4.70;;;;;;;11.48;76.53;101025.13;6180823;23;20024;-68
2022/05/05 04:57:27;;;;;;;6.35;4.38;;;;;;;11.60;76.44;101034.16;6180105;23;20510;-68
2022/05/05 05:00:31;;;;;;;8.70;4.35;;;;;;;11.53;76.87;101036.22;6172921;23;20031;-69
2022/05/05 05:03:36;;;;;;;7.38;4.45;;;;;;;11.58;76.66;101043.84;6175535;23;20143;-69
2022/05/05 05:06:39;;;;;;;9.50;4.70;;;;;;;11.71;76.15;101044.09;6174043;23;20402;-68
2022/05/05 05:09:45;;;;;;;8.65;4.45;;;;;;;11.58;77.16;101046.47;6174881;23;20071;-69
2022/05/05 05:12:49;;;;;;;8.52;4.25;;;;;;;11.66;76.93;101048.75;6174512;23;20427;-68
2022/05/05 05:15:55;;;;;;;9.52;4.82;;;;;;;11.74;76.73;101049.19;6173243;23;20024;-69
2022/05/05 05:18:58;;;;;;;12.63;4.32;;;;;;;11.69;77.56;101052.06;6244759;22;20032;-69
2022/05/05 05:22:01;;;;;;;;;;;;;;;11.75;77.01;101057.00;6174933;23;20036;-69
2022/05/05 05:25:05;;;;;;;9.70;4.88;;;;;;;11.81;76.72;101056.69;6175072;23;20416;-68
2022/05/05 05:28:09;;;;;;;6.65;3.83;;;;;;;11.86;76.26;101062.56;6175189;23;20043;-68
2022/05/05 05:31:12;;;;;;;6.10;4.22;;;;;;;11.88;76.07;101061.69;6174556;23;20551;-69
2022/05/05 05:34:15;;;;;;;;;;;;;;;11.83;75.81;101060.06;6173655;23;20053;-69
2022/05/05 05:37:20;;;;;;;10.38;5.43;;;;;;;11.84;76.18;101061.81;6175701;22;19965;-69
2022/05/05 05:40:25;;;;;;;8.55;4.53;;;;;;;11.79;75.85;101070.78;6174973;23;20031;-69
2022/05/05 05:43:28;;;;;;;6.13;3.70;;;;;;;11.84;76.04;101071.44;6176132;23;20447;-68
2022/05/05 05:46:32;;;;;;;9.98;5.20;;;;;;;11.88;75.81;101067.75;6175692;23;20024;-69
2022/05/05 05:49:36;;;;;;;6.93;4.47;;;;;;;12.03;75.19;101072.25;6176436;23;20040;-69
2022/05/05 05:52:40;;;;;;;7.50;5.00;;;;;;;12.01;74.69;101081.94;6174572;23;20024;-69
2022/05/05 05:55:43;;;;;;;8.57;4.68;;;;;;;12.19;74.44;101076.72;6173163;23;20039;-69
2022/05/05 05:58:47;;;;;;;7.80;4.47;;;;;;;12.19;71.76;101080.19;6174640;23;20470;-69
2022/05/05 06:05:17;;;;;;;13.15;3.70;;;;;;;12.44;70.88;101077.16;6174809;23;20031;-69
2022/05/05 06:08:21;;;;;;;7.95;4.15;;;;;;;12.13;65.80;101077.03;6173830;23;20044;-68
2022/05/05 06:11:24;;;;;;;11.55;4.05;;;;;;;12.35;64.10;101077.66;6175118;23;20024;-69
2022/05/05 06:14:28;;;;;;;8.32;4.35;;;;;;;12.39;63.18;101091.47;6175455;23;20077;-69
2022/05/05 06:17:33;;;;;;;11.50;3.70;;;;;;;12.44;62.06;101084.19;6176225;23;20051;-68
2022/05/05 06:20:36;;;;;;;9.00;3.58;;;;;;;12.28;61.84;101082.38;6247582;22;20357;-69
2022/05/05 06:23:41;;;;;;;11.20;4.60;;;;;;;12.70;64.10;101081.09;6174561;23;20024;-69
2022/05/05 06:26:44;;;;;;;10.50;3.58;;;;;;;12.83;63.36;101089.16;6173379;23;20395;-70
2022/05/05 06:29:48;;;;;;;9.00;3.50;;;;;;;13.00;61.01;101085.63;6173241;23;20090;-71
2022/05/05 06:32:51;;;;;;;12.75;3.92;;;;;;;12.90;59.51;101084.44;6244520;22;20516;-71
2022/05/05 06:35:55;;;;;;;11.23;3.38;;;;;;;12.79;59.54;101085.84;6179443;23;20509;-71
2022/05/05 06:38:59;;;;;;;13.55;4.00;;;;;;;12.93;58.88;101089.53;6179918;22;20098;-71
2022/05/05 06:42:04;;;;;;;8.30;3.78;;;;;;;12.96;59.34;101092.81;6179443;23;20024;-71
2022/05/05 06:45:10;;;;;;;6.22;3.17;;;;;;;13.12;59.21;101090.22;6252053;22;20023;-71
2022/05/05 06:48:14;;;;;;;12.88;4.50;;;;;;;13.18;59.58;101095.16;6180096;23;20040;-71
2022/05/05 06:51:18;;;;;;;12.52;3.88;;;;;;;13.28;59.93;101087.66;6180154;23;20475;-70
2022/05/05 06:54:22;;;;;;;10.25;3.15;;;;;;;13.14;60.11;101093.59;6180243;23;20407;-71
2022/05/05 06:57:27;;;;;;;9.63;3.75;;;;;;;13.29;59.45;101097.22;6180301;23;20027;-70
2022/05/05 07:07:21;;;;;;;7.70;2.95;;;;;;;13.48;59.87;101099.69;6173305;23;20031;-70
2022/05/05 07:13:58;;;;;;;7.95;3.30;;;;;;;13.55;58.64;101103.66;6174663;23;20024;-69
2022/05/05 07:17:24;;;;;;;12.77;3.85;;;;;;;13.20;59.54;101103.78;6175897;23;20067;-69
2022/05/05 07:20:43;;;;;;;8.88;3.33;;;;;;;13.07;59.70;101100.13;6173481;23;20098;-69
2022/05/05 07:23:46;;;;;;;9.43;3.65;;;;;;;13.29;59.29;101105.09;6174296;23;20036;-69
2022/05/05 07:26:50;;;;;;;8.95;3.90;;;;;;;13.30;58.25;101106.78;6173739;23;20391;-69
2022/05/05 07:30:24;;;;;;;10.60;3.90;;;;;;;13.30;58.01;101109.41;6174153;23;20110;-69
2022/05/05 07:38:59;;;;;;;9.85;3.90;;;;;;;13.71;56.80;101115.00;6179958;22;20063;-68
2022/05/05 07:42:12;;;;;;;16.50;4.40;;;;;;;13.96;56.64;101118.88;6180136;23;20028;-69
2022/05/05 07:45:16;;;;;;;;;;;;;;;14.14;56.78;101112.59;6180374;23;20272;-69
2022/05/05 07:48:20;;;;;;;12.60;3.75;;;;;;;14.32;57.72;101125.59;6178645;23;19942;-69
2022/05/05 07:51:29;;;;;;;9.38;3.58;;;;;;;14.42;57.24;101124.97;6178830;23;20035;-69
2022/05/05 07:54:58;;;;;;;15.05;4.82;;;;;;;14.25;57.25;101121.63;6179602;23;20071;-69
2022/05/05 07:58:02;;;;;;;9.68;4.22;;;;;;;14.21;57.24;101123.59;6180423;23;20063;-69
2022/05/05 08:01:15;;;;;;;12.25;4.22;;;;;;;14.34;56.94;101134.25;6180490;23;20623;-69
2022/05/05 08:04:21;;;;;;;11.07;4.35;;;;;;;14.60;57.36;101140.63;6179935;23;20516;-69
2022/05/05 08:07:39;;;;;;;13.57;5.07;;;;;;;14.17;56.46;101140.50;6181067;23;20066;-69
2022/05/05 08:11:01;;;;;;;11.40;4.40;;;;;;;14.49;56.83;101143.03;6180666;23;20046;-69
2022/05/05 08:14:24;;;;;;;10.20;4.28;;;;;;;14.44;54.78;101143.28;6181200;23;20188;-69
2022/05/05 08:17:34;;;;;;;12.50;4.22;;;;;;;14.43;54.59;101141.63;6180060;23;20419;-69
2022/05/05 08:21:17;;;;;;;15.25;4.88;;;;;;;14.50;56.43;101144.72;6181085;23;20313;-69
2022/05/05 08:31:31;;;;;;;12.65;5.32;;;;;;;14.63;51.39;101143.09;6180176;23;20066;-69
2022/05/05 08:34:52;;;;;;;15.98;6.53;;;;;;;14.70;49.69;101151.47;6179995;23;20070;-69
2022/05/05 08:38:49;;;;;;;10.77;4.55;;;;;;;14.92;50.82;101151.88;6180268;22;20081;-69
2022/05/05 08:41:59;;;;;;;;;;;;;;;15.19;50.35;101151.13;6181390;23;20063;-69
2022/05/05 08:45:26;;;;;;;13.52;5.05;;;;;;;15.40;49.39;101147.16;6179642;23;19915;-69
2022/05/05 08:48:40;;;;;;;16.67;5.57;;;;;;;15.47;49.89;101145.81;6180431;23;20353;-69
2022/05/05 08:52:17;;;;;;;17.73;7.40;;;;;;;15.49;48.60;101162.41;6180802;23;20064;-70
2022/05/05 08:55:30;;;;;;;13.98;5.82;;;;;;;15.66;47.36;101155.22;6180886;23;20055;-70
2022/05/05 08:58:34;;;;;;;13.05;6.25;;;;;;;15.69;46.36;101139.25;6180064;23;20023;-70
2022/05/05 09:01:40;;;;;;;12.93;5.60;;;;;;;15.74;47.89;101147.72;6180749;23;20094;-70
2022/05/05 09:04:48;;;;;;;16.17;6.03;;;;;;;16.11;46.82;101147.94;6180470;23;20028;-70
2022/05/05 09:08:32;;;;;;;9.05;5.72;;;;;;;16.13;46.93;101140.78;6254335;22;20024;-69
2022/05/05 09:11:37;;;;;;;12.02;5.90;;;;;;;16.23;46.27;101142.72;6180905;23;20031;-69
2022/05/05 09:14:49;;;;;;;16.15;6.00;;;;;;;16.15;47.30;101144.19;6252542;22;20063;-69
2022/05/05 09:17:53;;;;;;;11.27;5.57;;;;;;;16.36;46.07;101142.75;6181072;23;20055;-69
2022/05/05 09:21:04;;;;;;;15.68;7.03;;;;;;;16.26;46.17;101147.78;6180731;23;20027;-69
2022/05/05 09:27:36;;;;;;;18.70;6.47;;;;;;;16.18;45.86;101154.53;6180874;23;20035;-69
2022/05/05 09:30:53;;;;;;;13.43;6.85;;;;;;;15.83;46.68;101155.03;6180672;23;20028;-69
2022/05/05 09:33:56;;;;;;;15.20;7.82;;;;;;;16.11;46.18;101158.50;6180857;23;20028;-69
2022/05/05 09:37:20;;;;;;;16.85;7.35;;;;;;;16.20;45.73;101158.75;6180524;22;20048;-69
2022/05/05 09:40:24;;;;;;;15.82;8.93;;;;;;;16.00;45.59;101161.84;6180800;23;20032;-69
2022/05/05 09:43:30;;;;;;;19.48;8.98;;;;;;;16.23;46.34;101152.44;6180902;23;20082;-69
2022/05/05 09:46:33;;;;;;;12.70;8.63;;;;;;;16.19;46.17;101150.94;6180409;23;20497;-69
2022/05/05 09:49:37;;;;;;;16.35;9.02;;;;;;;16.33;45.33;101153.50;6180239;23;20049;-69
2022/05/05 09:59:39;;;;;;;13.90;7.57;;;;;;;16.11;46.60;101147.94;6174934;23;20379;-69
2022/05/05 10:06:06;;;;;;;12.85;6.25;;;;;;;16.18;48.04;101160.66;6178648;23;20023;-69
2022/05/05 10:09:14;;;;;;;13.68;6.38;;;;;;;16.10;48.70;101164.72;6179031;23;20032;-69
2022/05/05 10:12:18;;;;;;;16.52;6.97;;;;;;;16.02;48.69;101163.44;6180631;23;20074;-69
2022/05/05 10:15:22;;;;;;;12.85;6.35;;;;;;;16.16;48.49;101164.34;6180319;23;20352;-69
2022/05/05 10:18:27;;;;;;;13.85;6.82;;;;;;;16.15;48.23;101162.66;6180554;23;20023;-69
2022/05/05 10:21:59;;;;;;;16.90;6.40;;;;;;;16.04;48.56;101156.25;6180634;23;20555;-69
2022/05/05 10:25:11;;;;;;;14.10;6.60;;;;;;;16.09;48.59;101160.41;6180657;23;20521;-69
2022/05/05 10:28:40;;;;;;;18.17;6.53;;;;;;;16.19;49.07;101162.34;6180857;23;20081;-69
2022/05/05 10:31:45;;;;;;;15.27;7.57;;;;;;;16.07;47.45;101163.13;6180162;23;20023;-69
2022/05/05 10:34:52;;;;;;;16.95;7.65;;;;;;;16.15;48.22;101165.28;6178629;23;20028;-69
2022/05/05 10:37:56;;;;;;;17.88;7.45;;;;;;;16.37;47.03;101160.28;6179755;22;20023;-69
2022/05/05 10:41:00;;;;;;;14.55;8.80;;;;;;;16.46;46.22;101164.97;6180261;23;20600;-69
2022/05/05 10:44:23;;;;;;;15.05;8.27;;;;;;;16.33;47.06;101152.66;6178302;23;20023;-69
2022/05/05 10:47:51;;;;;;;19.05;8.55;;;;;;;16.26;47.28;101155.69;6179184;23;20024;-69
2022/05/05 10:51:06;;;;;;;13.20;8.25;;;;;;;16.55;46.97;101157.34;6179144;23;20056;-69
2022/05/05 10:54:24;;;;;;;19.83;10.63;;;;;;;16.31;46.30;101160.69;6180209;23;20074;-69
2022/05/05 10:57:29;;;;;;;17.88;9.15;;;;;;;16.64;45.88;101156.75;6252066;22;20409;-69
2022/05/05 11:00:43;;;;;;;13.85;9.45;;;;;;;16.34;47.76;101160.50;6180473;23;20082;-69
2022/05/05 11:04:24;;;;;;;21.83;9.23;;;;;;;16.69;46.88;101160.75;6180400;23;20348;-69
2022/05/05 11:07:36;;;;;;;17.42;9.15;;;;;;;16.68;46.86;101159.06;6179504;23;20390;-69
2022/05/05 11:21:44;;;;;;;17.73;11.32;;;;;;;16.82;46.23;101152.88;6251837;22;20075;-69
2022/05/05 11:24:49;;;;;;;17.67;9.95;;;;;;;17.08;45.98;101147.59;6179137;23;20045;-69
2022/05/05 11:27:56;;;;;;;21.20;11.32;;;;;;;17.13;45.49;101148.09;6178279;23;20024;-69
2022/05/05 11:31:00;;;;;;;20.40;10.98;;;;;;;17.12;45.72;101151.72;6179908;23;20082;-69
2022/05/05 11:34:05;;;;;;;19.52;10.88;;;;;;;17.25;45.50;101152.53;6180001;23;20347;-69
2022/05/05 11:37:09;;;;;;;17.35;10.50;;;;;;;17.02;45.61;101155.94;6179942;22;20024;-69
2022/05/05 11:40:14;;;;;;;14.15;9.60;;;;;;;16.94;46.02;101154.69;6178127;23;20049;-69
2022/05/05 11:46:44;;;;;;;16.73;12.23;;;;;;;16.91;45.08;101154.91;6176086;23;20070;-69
2022/05/05 11:49:51;;;;;;;21.95;12.48;;;;;;;16.87;46.68;101155.19;6177401;23;20112;-69
2022/05/05 11:52:54;;;;;;;18.08;11.73;;;;;;;16.71;47.06;101153.56;6180171;23;20082;-69
2022/05/05 11:55:57;;;;;;;16.48;9.90;;;;;;;16.85;47.13;101151.84;6179410;23;20025;-69
2022/05/05 12:02:35;;;;;;;18.85;12.65;;;;;;;16.89;46.54;101145.38;6179880;23;20027;-69
2022/05/05 12:05:38;;;;;;;15.73;10.93;;;;;;;16.88;46.95;101155.09;6179844;23;20023;-69
2022/05/05 12:08:41;;;;;;;18.70;11.95;;;;;;;16.64;47.40;101156.75;6180348;23;20068;-69
2022/05/05 12:11:45;;;;;;;19.30;12.98;;;;;;;16.48;47.53;101155.13;6179652;23;20039;-69
2022/05/05 12:15:07;;;;;;;15.73;11.88;;;;;;;16.80;47.37;101156.56;6179372;23;20348;-69
2022/05/05 12:18:15;;;;;;;21.35;15.15;;;;;;;16.65;46.99;101159.25;6268827;22;20024;-69
2022/05/05 12:21:25;;;;;;;26.10;14.82;;;;;;;16.52;47.51;101164.53;6172114;23;20056;-69
2022/05/05 12:24:30;;;;;;;27.02;14.52;;;;;;;16.62;47.41;101161.25;6173758;23;20028;-69
2022/05/05 12:27:34;;;;;;;23.67;14.75;;;;;;;16.72;47.39;101160.56;6171456;23;20105;-69
2022/05/05 12:30:40;;;;;;;19.58;13.57;;;;;;;16.88;47.07;101155.09;6173485;23;20032;-70
2022/05/05 12:33:44;;;;;;;23.50;14.35;;;;;;;16.66;47.95;101160.13;6244620;22;20071;-70
2022/05/05 12:36:48;;;;;;;23.42;13.90;;;;;;;16.55;48.28;101162.63;6172559;23;20089;-70
2022/05/05 12:40:15;;;;;;;21.00;13.80;;;;;;;16.65;48.08;101159.25;6143294;23;20047;-70
2022/05/05 12:43:22;;;;;;;20.48;13.80;;;;;;;16.70;47.50;101158.97;6143857;23;20058;-70
2022/05/05 12:46:25;;;;;;;25.08;13.70;;;;;;;16.58;48.61;101165.06;6145135;23;20020;-70
2022/05/05 12:49:38;;;;;;;21.73;13.98;;;;;;;16.65;48.78;101159.25;6143710;23;20043;-70
2022/05/05 12:59:37;;;;;;;25.63;13.63;;;;;;;16.61;47.74;101167.50;6146795;23;20067;-70
2022/05/05 13:02:40;;;;;;;25.02;15.20;;;;;;;16.65;48.31;101159.25;6143853;23;20028;-70
2022/05/05 13:05:45;;;;;;;24.15;15.32;;;;;;;16.64;49.69;101156.75;6144661;23;20021;-70
2022/05/05 13:08:49;;;;;;;26.85;14.25;;;;;;;16.38;49.63;101161.97;6145237;23;20055;-70
2022/05/05 13:11:54;;;;;;;19.60;12.75;;;;;;;16.54;49.82;101160.94;6146352;23;20071;-70
2022/05/05 13:14:57;;;;;;;24.40;13.70;;;;;;;16.46;50.58;101170.25;6146303;23;20028;-70
2022/05/05 13:18:00;;;;;;;20.40;13.18;;;;;;;16.41;50.91;101166.22;6144123;23;20151;-70
2022/05/05 13:21:04;;;;;;;20.55;14.63;;;;;;;16.41;50.59;101164.41;6144441;23;20024;-70
2022/05/05 13:24:09;;;;;;;21.58;15.38;;;;;;;16.40;50.83;101165.38;6144894;23;20287;-70
2022/05/05 13:27:12;;;;;;;19.60;13.52;;;;;;;16.55;50.71;101160.00;6144902;23;20071;-69
2022/05/05 13:30:15;;;;;;;22.55;14.75;;;;;;;16.58;50.53;101165.06;6144749;23;20062;-69
2022/05/05 13:33:19;;;;;;;22.73;14.77;;;;;;;16.55;50.11;101160.84;6146354;23;20052;-69
2022/05/05 13:36:23;;;;;;;20.23;13.52;;;;;;;16.43;49.99;101154.59;6145300;23;20384;-69
2022/05/05 13:39:27;;;;;;;16.98;11.55;;;;;;;16.51;50.19;101157.56;6144650;23;20024;-69
2022/05/05 13:42:30;;;;;;;25.17;12.95;;;;;;;16.34;49.15;101157.00;6146891;23;20029;-69
2022/05/05 13:45:33;;;;;;;22.45;13.93;;;;;;;16.20;49.13;101161.38;6143807;23;20067;-69
2022/05/05 13:48:38;;;;;;;15.77;10.07;;;;;;;16.34;49.12;101165.78;6143341;23;20482;-69
2022/05/05 13:51:42;;;;;;;18.02;12.23;;;;;;;16.37;48.22;101162.94;6145014;23;20025;-69
2022/05/05 13:54:47;;;;;;;17.38;11.00;;;;;;;16.29;48.82;101162.56;6145307;23;20074;-69
2022/05/05 13:57:51;;;;;;;19.52;10.75;;;;;;;16.26;49.37;101157.50;6145139;23;20017;-70
2022/05/05 14:00:54;;;;;;;16.17;10.27;;;;;;;16.33;49.55;101153.50;6143630;23;20071;-69
2022/05/05 14:03:57;;;;;;;16.35;10.50;;;;;;;16.55;49.36;101157.34;6144714;23;20502;-69
2022/05/05 14:07:02;;;;;;;14.23;10.40;;;;;;;16.34;49.60;101155.22;6144647;23;20082;-69
2022/05/05 14:13:27;;;;;;;15.63;10.38;;;;;;;16.62;49.32;101153.34;6144365;23;20071;-69
2022/05/05 14:16:31;;;;;;;14.68;10.18;;;;;;;16.58;49.52;101149.22;6144984;23;20055;-69
2022/05/05 14:19:34;;;;;;;15.45;10.18;;;;;;;16.65;49.37;101153.13;6145748;23;20028;-70
2022/05/05 14:22:37;;;;;;;16.63;10.90;;;;;;;16.65;49.11;101153.97;6145229;23;20078;-69
2022/05/05 14:25:40;;;;;;;17.67;10.45;;;;;;;16.48;49.01;101146.38;6142938;23;20056;-69
2022/05/05 14:28:44;;;;;;;19.67;10.88;;;;;;;16.57;48.85;101152.81;6143519;23;20056;-69
2022/05/05 14:31:48;;;;;;;44.75;14.65;;;;;;;16.61;48.68;101144.59;6144306;23;20111;-69
2022/05/05 14:34:51;;;;;;;16.95;11.48;;;;;;;16.85;48.36;101139.47;6145044;23;20040;-70
2022/05/05 14:37:55;;;;;;;17.45;11.52;;;;;;;17.02;47.85;101140.94;6156222;22;20065;-69
2022/05/05 14:41:00;;;;;;;18.90;11.27;;;;;;;16.81;48.28;101137.97;6174501;23;20032;-69
2022/05/05 14:44:05;;;;;;;16.27;10.25;;;;;;;17.06;48.21;101137.13;6175206;23;20420;-69
2022/05/05 14:47:10;;;;;;;15.27;10.43;;;;;;;17.38;47.63;101132.19;6174335;23;20534;-69
2022/05/05 14:50:14;;;;;;;17.45;10.25;;;;;;;17.12;48.06;101135.84;6174337;23;20032;-69
2022/05/05 14:53:17;;;;;;;19.42;10.73;;;;;;;17.08;48.73;101134.38;6174211;23;20028;-69
2022/05/05 14:56:21;;;;;;;18.42;11.80;;;;;;;17.51;47.48;101128.69;6174054;23;20051;-69
2022/05/05 14:59:24;;;;;;;13.95;9.55;;;;;;;17.72;46.84;101134.25;6175040;23;20352;-69
2022/05/05 15:02:28;;;;;;;16.00;10.82;;;;;;;17.80;46.82;101131.91;6174644;23;20133;-69
2022/05/05 15:05:31;;;;;;;20.50;10.55;;;;;;;17.63;47.06;101128.66;6174204;23;20517;-69
2022/05/05 15:08:34;;;;;;;16.85;10.02;;;;;;;17.73;47.58;101126.19;6227648;22;20090;-69
2022/05/05 15:11:38;;;;;;;16.98;10.23;;;;;;;17.81;47.21;101123.88;6172448;23;20146;-69
2022/05/05 15:14:41;;;;;;;18.38;12.55;;;;;;;17.92;46.66;101119.59;6176775;23;20082;-69
2022/05/05 15:17:44;;;;;;;17.95;10.57;;;;;;;18.04;46.86;101126.63;6176261;23;20020;-69
2022/05/05 15:20:48;;;;;;;16.33;10.60;;;;;;;18.23;46.28;101128.75;6175000;23;20028;-69
2022/05/05 15:23:53;;;;;;;16.95;10.23;;;;;;;18.28;46.57;101127.44;6173885;23;20060;-71
2022/05/05 15:26:57;;;;;;;15.48;10.70;;;;;;;18.30;47.00;101122.88;6173842;23;20027;-70
2022/05/05 15:30:03;;;;;;;15.77;9.82;;;;;;;18.00;46.90;101136.59;6173720;23;20063;-71
2022/05/05 15:33:09;;;;;;;14.02;9.40;;;;;;;17.88;48.03;101135.69;6173265;23;20051;-71
2022/05/05 15:36:15;;;;;;;13.60;9.27;;;;;;;18.03;48.05;101124.94;6172691;23;20024;-71
2022/05/05 15:39:35;;;;;;;20.52;9.00;;;;;;;18.04;48.19;101118.69;6281470;22;20102;-70
2022/05/05 15:46:52;;;;;;;15.65;10.23;;;;;;;17.80;47.83;101127.44;6298071;22;20025;-70
2022/05/05 15:49:57;;;;;;;14.73;8.15;;;;;;;17.71;49.06;101130.75;6296895;22;20022;-70